Time;durP1;ratioP1;P1;durP2;ratioP2;P2;SDS_P1;SDS_P2;PMS_P1;PMS_P2;Temp;Humidity;BMP_temperature;BMP_pressure;BME280_temperature;BME280_humidity;BME280_pressure;Samples;Min_cycle;Max_cycle;Signal;HPM_P1;HPM_P2
2022/07/14 00:00:21;;;;;;;20.63;19.58;;;27.50;48.00;;;;;;5030702;28;20037;-83
2022/07/14 00:02:47;;;;;;;20.40;19.10;;;27.50;48.30;;;;;;5031529;28;20022;-83
2022/07/14 00:05:13;;;;;;;21.50;19.67;;;27.50;48.30;;;;;;5029982;28;20043;-83
2022/07/14 00:07:39;;;;;;;22.38;21.00;;;27.50;48.40;;;;;;5031628;28;20026;-83
2022/07/14 00:10:06;;;;;;;21.20;20.00;;;27.40;48.50;;;;;;5031742;28;20049;-83
2022/07/14 00:12:32;;;;;;;21.40;20.15;;;27.50;48.50;;;;;;5035367;28;20025;-83
2022/07/14 00:14:58;;;;;;;21.15;19.98;;;27.50;48.60;;;;;;5015553;28;20389;-82
2022/07/14 00:17:24;;;;;;;22.33;20.92;;;27.40;48.70;;;;;;5018523;28;20033;-83
2022/07/14 00:19:50;;;;;;;22.65;20.92;;;27.40;48.70;;;;;;5019403;28;20388;-83
2022/07/14 00:22:16;;;;;;;22.13;20.75;;;27.40;48.90;;;;;;5037591;28;20040;-83
2022/07/14 00:24:42;;;;;;;22.00;20.60;;;27.40;48.70;;;;;;5047127;28;20040;-83
2022/07/14 00:27:08;;;;;;;22.55;20.73;;;27.40;48.70;;;;;;5030087;28;20468;-82
2022/07/14 00:29:35;;;;;;;21.02;19.83;;;27.40;48.80;;;;;;5047662;28;20028;-83
2022/07/14 00:32:03;;;;;;;20.52;19.38;;;27.30;48.90;;;;;;5012974;28;20385;-83
2022/07/14 00:34:29;;;;;;;19.85;18.65;;;27.10;49.50;;;;;;5010113;28;20125;-82
2022/07/14 00:36:55;;;;;;;20.00;18.85;;;27.00;49.60;;;;;;5019233;28;20417;-82
2022/07/14 00:39:21;;;;;;;19.85;18.65;;;27.00;49.40;;;;;;5030734;28;20036;-83
2022/07/14 00:41:47;;;;;;;20.00;18.90;;;27.00;49.60;;;;;;5030427;28;20037;-82
2022/07/14 00:44:13;;;;;;;20.98;19.65;;;27.00;49.30;;;;;;5019782;28;20468;-83
2022/07/14 00:46:39;;;;;;;21.05;19.95;;;27.10;49.20;;;;;;5034697;28;20042;-83
2022/07/14 00:49:05;;;;;;;21.48;20.30;;;27.30;48.90;;;;;;5035766;28;20393;-83
2022/07/14 00:51:31;;;;;;;21.23;19.70;;;27.30;48.70;;;;;;5031135;28;20033;-83
2022/07/14 00:53:58;;;;;;;22.08;20.75;;;27.40;48.40;;;;;;5031422;28;20026;-83
2022/07/14 00:56:24;;;;;;;21.85;20.65;;;27.40;48.30;;;;;;5017703;28;20057;-83
2022/07/14 00:58:50;;;;;;;22.05;20.55;;;27.40;48.00;;;;;;5026494;28;20021;-83
2022/07/14 01:01:16;;;;;;;23.02;21.48;;;27.50;47.70;;;;;;5030328;28;20045;-83
2022/07/14 01:03:42;;;;;;;23.83;21.88;;;27.60;47.50;;;;;;5013088;28;20492;-83
2022/07/14 01:06:08;;;;;;;22.60;21.40;;;27.70;47.20;;;;;;5022002;28;20033;-83
2022/07/14 01:08:34;;;;;;;22.67;21.05;;;27.70;47.20;;;;;;5031084;28;20060;-82
2022/07/14 01:11:00;;;;;;;24.58;22.50;;;27.70;47.00;;;;;;5045541;28;20029;-83
2022/07/14 01:13:28;;;;;;;22.95;21.75;;;27.80;47.00;;;;;;5046140;28;20054;-82
2022/07/14 01:15:54;;;;;;;23.98;22.48;;;27.70;47.00;;;;;;5028913;28;20064;-83
2022/07/14 01:18:20;;;;;;;22.38;21.15;;;27.70;47.20;;;;;;5012240;28;20041;-83
2022/07/14 01:20:46;;;;;;;22.40;20.75;;;27.70;47.20;;;;;;5030002;28;20045;-83
2022/07/14 01:23:12;;;;;;;23.40;22.00;;;27.60;47.50;;;;;;5028975;28;20038;-83
2022/07/14 01:25:38;;;;;;;24.33;22.90;;;27.60;47.30;;;;;;5030130;28;20036;-82
2022/07/14 01:28:04;;;;;;;26.85;25.48;;;27.70;47.20;;;;;;5029134;28;20040;-82
2022/07/14 01:30:30;;;;;;;24.88;23.48;;;27.80;47.20;;;;;;5030045;28;20038;-83
2022/07/14 01:32:57;;;;;;;26.85;25.27;;;27.80;46.90;;;;;;5015724;28;20346;-82
2022/07/14 01:35:23;;;;;;;27.92;26.13;;;27.80;46.80;;;;;;5028850;28;20034;-83
2022/07/14 01:37:49;;;;;;;28.50;26.58;;;27.80;47.30;;;;;;5022194;28;20469;-82
2022/07/14 01:40:16;;;;;;;33.55;31.80;;;27.70;47.10;;;;;;5019313;28;20048;-82
2022/07/14 01:42:42;;;;;;;35.42;33.22;;;27.70;47.10;;;;;;5012584;28;20042;-83
2022/07/14 01:45:09;;;;;;;29.75;27.88;;;27.70;47.20;;;;;;5012531;28;20044;-82
2022/07/14 01:47:35;;;;;;;28.83;26.63;;;27.70;47.30;;;;;;5046105;28;20021;-82
2022/07/14 01:50:01;;;;;;;24.05;22.45;;;27.70;47.20;;;;;;5045477;28;20037;-82
2022/07/14 01:52:27;;;;;;;26.00;24.63;;;27.60;47.50;;;;;;5045174;28;20021;-82
2022/07/14 01:54:53;;;;;;;28.58;26.42;;;27.50;47.50;;;;;;5045294;28;20088;-82
2022/07/14 01:57:19;;;;;;;30.40;28.40;;;27.50;47.70;;;;;;5029177;28;20411;-83
2022/07/14 01:59:45;;;;;;;35.42;33.63;;;27.50;47.70;;;;;;5029732;28;20044;-83
2022/07/14 02:02:12;;;;;;;34.70;32.80;;;27.30;47.90;;;;;;5029519;28;20488;-83
2022/07/14 02:04:38;;;;;;;30.17;28.58;;;27.40;47.80;;;;;;5045311;28;20060;-82
2022/07/14 02:07:04;;;;;;;33.10;31.17;;;27.40;47.70;;;;;;5045183;28;20436;-82
2022/07/14 02:12:15;;;;;;;30.15;28.58;;;27.50;47.60;;;;;;5016944;28;20037;-83
2022/07/14 02:14:41;;;;;;;25.65;24.35;;;27.50;47.70;;;;;;5032459;28;20037;-83
2022/07/14 02:17:08;;;;;;;26.88;25.27;;;27.50;47.70;;;;;;5026936;28;20037;-82
2022/07/14 02:19:35;;;;;;;26.20;24.67;;;27.40;47.80;;;;;;5029735;28;20018;-82
2022/07/14 02:22:01;;;;;;;29.98;28.30;;;27.40;47.90;;;;;;5028294;28;20041;-83
2022/07/14 02:24:27;;;;;;;25.17;23.63;;;27.40;48.10;;;;;;5028446;28;20029;-83
2022/07/14 02:26:53;;;;;;;25.75;24.25;;;27.40;48.00;;;;;;5030637;28;20029;-82
2022/07/14 02:29:20;;;;;;;24.98;23.67;;;27.40;48.10;;;;;;5031537;28;20029;-83
2022/07/14 02:31:46;;;;;;;27.00;25.58;;;27.20;48.30;;;;;;5009045;28;20030;-83
2022/07/14 02:34:12;;;;;;;26.15;24.73;;;27.20;48.40;;;;;;5026002;28;20033;-83
2022/07/14 02:36:39;;;;;;;25.90;24.40;;;27.20;48.60;;;;;;5047607;28;20042;-82
2022/07/14 02:39:05;;;;;;;25.27;23.75;;;27.20;48.80;;;;;;5016267;28;20489;-82
2022/07/14 02:41:31;;;;;;;25.52;24.02;;;27.10;49.00;;;;;;5037641;28;20509;-82
2022/07/14 02:43:57;;;;;;;26.52;25.02;;;27.00;49.10;;;;;;5003459;28;20029;-83
2022/07/14 02:46:23;;;;;;;27.95;26.55;;;27.00;49.30;;;;;;5033281;28;20357;-82
2022/07/14 02:48:50;;;;;;;27.10;25.48;;;27.00;49.40;;;;;;5032445;28;20029;-82
2022/07/14 02:51:16;;;;;;;27.27;25.00;;;26.90;49.30;;;;;;5032558;28;20057;-82
2022/07/14 02:53:42;;;;;;;25.27;23.98;;;26.90;49.60;;;;;;5038293;28;20030;-82
2022/07/14 02:56:08;;;;;;;26.83;25.35;;;26.80;49.50;;;;;;5037708;28;20052;-82
2022/07/14 02:58:34;;;;;;;25.30;23.80;;;26.80;49.80;;;;;;5033859;28;20032;-82
2022/07/14 03:01:05;;;;;;;26.23;24.52;;;26.80;49.80;;;;;;5016077;28;20040;-82
2022/07/14 03:03:31;;;;;;;27.38;25.50;;;26.70;50.20;;;;;;5017943;28;20488;-82
2022/07/14 03:05:57;;;;;;;26.33;24.75;;;26.50;50.40;;;;;;5036403;28;20555;-82
2022/07/14 03:08:23;;;;;;;25.63;24.23;;;26.30;50.80;;;;;;5037197;28;20045;-82
2022/07/14 03:10:49;;;;;;;24.13;22.77;;;26.20;51.00;;;;;;5016788;28;20476;-82
2022/07/14 03:13:15;;;;;;;24.60;22.95;;;26.10;51.40;;;;;;5035356;28;20045;-82
2022/07/14 03:15:41;;;;;;;24.60;23.10;;;26.00;51.30;;;;;;5032428;28;20396;-82
2022/07/14 03:18:09;;;;;;;23.10;21.90;;;26.10;51.50;;;;;;5048375;28;20049;-82
2022/07/14 03:20:35;;;;;;;22.73;21.30;;;25.80;52.00;;;;;;5033008;28;20052;-82
2022/07/14 03:23:01;;;;;;;21.20;20.05;;;25.70;52.20;;;;;;5023008;28;20061;-82
2022/07/14 03:25:27;;;;;;;22.48;20.83;;;25.70;52.40;;;;;;5021408;28;20040;-82
2022/07/14 03:27:54;;;;;;;21.00;19.67;;;25.60;52.50;;;;;;5035513;28;20029;-82
2022/07/14 03:30:20;;;;;;;21.13;19.92;;;25.60;52.70;;;;;;5014507;28;20594;-82
2022/07/14 03:32:46;;;;;;;20.15;18.52;;;25.50;52.80;;;;;;5032289;28;20029;-82
2022/07/14 03:35:12;;;;;;;21.70;19.98;;;25.50;52.70;;;;;;5030823;28;20029;-82
2022/07/14 03:37:38;;;;;;;20.83;19.23;;;25.40;53.00;;;;;;5042944;28;20034;-82
2022/07/14 03:40:05;;;;;;;19.70;18.48;;;25.40;52.80;;;;;;5035995;28;20026;-82
2022/07/14 03:42:32;;;;;;;19.30;18.10;;;25.50;52.70;;;;;;5031931;28;20049;-83
2022/07/14 03:44:58;;;;;;;19.45;18.17;;;25.50;52.60;;;;;;5048698;28;20042;-82
2022/07/14 03:47:24;;;;;;;19.00;17.77;;;25.50;52.50;;;;;;5047092;28;20037;-82
2022/07/14 03:49:50;;;;;;;18.75;17.75;;;25.50;52.70;;;;;;5030797;28;20028;-82
2022/07/14 03:52:16;;;;;;;18.05;16.70;;;25.40;52.60;;;;;;5028745;28;20045;-82
2022/07/14 03:54:44;;;;;;;17.45;16.35;;;25.30;53.00;;;;;;5033754;28;20021;-82
2022/07/14 03:57:14;;;;;;;17.33;16.00;;;25.20;53.30;;;;;;5030886;28;20037;-82
2022/07/14 03:59:40;;;;;;;18.13;16.33;;;25.10;53.50;;;;;;5016242;28;20026;-82
2022/07/14 04:02:10;;;;;;;17.98;16.88;;;25.00;53.90;;;;;;5027858;28;20038;-82
2022/07/14 04:04:36;;;;;;;17.77;16.65;;;24.80;54.20;;;;;;5031588;28;20041;-82
2022/07/14 04:07:04;;;;;;;16.88;15.63;;;24.70;54.30;;;;;;5010916;28;20392;-82
2022/07/14 04:09:30;;;;;;;16.30;14.95;;;24.60;55.00;;;;;;5030781;28;20049;-82
2022/07/14 04:11:56;;;;;;;15.55;14.65;;;24.40;55.30;;;;;;5014593;28;20053;-82
2022/07/14 04:14:23;;;;;;;15.20;14.20;;;24.30;55.80;;;;;;5031724;28;20030;-82
2022/07/14 04:16:50;;;;;;;15.90;14.68;;;24.10;56.30;;;;;;5013733;28;20037;-82
2022/07/14 04:19:16;;;;;;;16.08;14.45;;;24.10;56.40;;;;;;5046724;28;20506;-82
2022/07/14 04:21:42;;;;;;;16.08;15.07;;;24.00;56.50;;;;;;5031579;28;20033;-82
2022/07/14 04:24:08;;;;;;;16.88;15.68;;;24.10;56.50;;;;;;5030533;28;20408;-82
2022/07/14 04:26:37;;;;;;;16.42;15.35;;;24.10;56.00;;;;;;5047475;28;20025;-82
2022/07/14 04:29:04;;;;;;;19.38;15.90;;;24.20;56.00;;;;;;5013982;28;20041;-82
2022/07/14 04:31:30;;;;;;;16.85;15.82;;;24.20;56.00;;;;;;5042596;28;20041;-82
2022/07/14 04:33:56;;;;;;;16.52;15.45;;;24.10;56.10;;;;;;5017554;28;20037;-82
2022/07/14 04:36:23;;;;;;;17.23;16.05;;;24.10;56.20;;;;;;5031383;28;20036;-82
2022/07/14 04:38:49;;;;;;;15.68;14.68;;;24.30;55.80;;;;;;5031110;28;20056;-82
2022/07/14 04:41:15;;;;;;;15.65;14.65;;;24.50;55.40;;;;;;5046788;28;20098;-82
2022/07/14 04:43:41;;;;;;;17.05;15.75;;;24.40;55.40;;;;;;5031325;28;20053;-82
2022/07/14 04:46:08;;;;;;;17.38;15.90;;;24.30;56.40;;;;;;5028872;28;20045;-82
2022/07/14 04:52:01;;;;;;;18.05;16.38;;;24.40;55.40;;;;;;5014712;28;20036;-82
2022/07/14 04:54:05;;;;;;;17.08;15.65;;;24.70;54.80;;;;;;5014806;28;20037;-82
2022/07/14 04:56:31;;;;;;;16.95;15.55;;;24.90;54.40;;;;;;5013855;28;20411;-82
2022/07/14 04:58:58;;;;;;;17.35;15.65;;;25.00;54.10;;;;;;5031009;28;20033;-84
2022/07/14 05:01:24;;;;;;;17.58;16.48;;;25.00;54.00;;;;;;5031292;28;20036;-84
2022/07/14 05:03:50;;;;;;;17.85;16.75;;;25.00;54.20;;;;;;5029074;28;20038;-85
2022/07/14 05:06:18;;;;;;;17.20;15.73;;;25.10;54.30;;;;;;5020583;28;20404;-82
2022/07/14 05:08:44;;;;;;;18.13;16.63;;;25.10;54.20;;;;;;5046660;28;20052;-82
2022/07/14 05:11:10;;;;;;;17.08;15.98;;;24.90;54.60;;;;;;5029473;28;20480;-82
2022/07/14 05:13:36;;;;;;;18.15;16.85;;;24.70;55.00;;;;;;5030708;28;20021;-82
2022/07/14 05:16:03;;;;;;;17.95;16.75;;;24.70;55.00;;;;;;5028432;28;20048;-82
2022/07/14 05:18:29;;;;;;;17.52;16.33;;;24.60;55.30;;;;;;5046003;28;20017;-82
2022/07/14 05:20:55;;;;;;;17.35;16.05;;;24.60;55.30;;;;;;5030273;28;20037;-82
2022/07/14 05:23:21;;;;;;;17.65;16.35;;;24.60;55.20;;;;;;5029320;28;20359;-82
2022/07/14 05:25:48;;;;;;;17.88;16.40;;;24.40;55.60;;;;;;5024263;28;20030;-82
2022/07/14 05:28:14;;;;;;;17.10;16.00;;;24.40;56.10;;;;;;5035803;28;20479;-82
2022/07/14 05:30:40;;;;;;;17.23;16.10;;;24.30;56.10;;;;;;5045091;28;20033;-82
2022/07/14 05:33:07;;;;;;;17.75;16.45;;;24.30;56.40;;;;;;4996452;28;20034;-83
2022/07/14 05:35:34;;;;;;;16.92;15.55;;;24.30;56.30;;;;;;5031153;28;20040;-82
2022/07/14 05:38:00;;;;;;;17.60;16.50;;;24.30;56.30;;;;;;5021573;28;20061;-82
2022/07/14 05:40:26;;;;;;;17.60;16.20;;;24.50;56.00;;;;;;5019348;28;20494;-82
2022/07/14 05:42:52;;;;;;;17.50;15.95;;;24.60;56.10;;;;;;5016442;28;20044;-82
2022/07/14 05:45:18;;;;;;;18.20;16.90;;;24.60;55.50;;;;;;5028083;28;20404;-82
2022/07/14 05:47:44;;;;;;;17.25;16.15;;;24.50;55.40;;;;;;5046255;28;20044;-82
2022/07/14 05:50:10;;;;;;;17.83;16.63;;;24.50;55.60;;;;;;5019794;28;20026;-82
2022/07/14 05:52:36;;;;;;;18.35;16.95;;;24.60;55.60;;;;;;5023336;28;20033;-82
2022/07/14 05:55:03;;;;;;;19.17;17.95;;;24.60;55.50;;;;;;5045273;28;20029;-82
2022/07/14 05:57:29;;;;;;;20.25;18.67;;;24.80;55.00;;;;;;5030130;28;20498;-82
2022/07/14 05:59:55;;;;;;;19.40;18.10;;;24.90;54.50;;;;;;5028964;28;20029;-83
2022/07/14 06:02:21;;;;;;;20.13;18.73;;;25.00;54.50;;;;;;5044509;28;20037;-82
2022/07/14 06:04:47;;;;;;;19.90;18.40;;;25.20;54.10;;;;;;5023766;28;20461;-83
2022/07/14 06:07:13;;;;;;;19.77;18.67;;;25.30;53.80;;;;;;5042627;28;20037;-83
2022/07/14 06:09:39;;;;;;;19.98;18.77;;;25.40;53.60;;;;;;5045645;28;20048;-83
2022/07/14 06:12:06;;;;;;;20.75;19.55;;;25.70;53.10;;;;;;5045452;28;20052;-83
2022/07/14 06:14:32;;;;;;;21.83;20.25;;;25.60;52.70;;;;;;5028979;28;20022;-83
2022/07/14 06:16:58;;;;;;;22.73;21.38;;;25.70;52.70;;;;;;5011407;28;20033;-83
2022/07/14 06:19:24;;;;;;;22.25;20.95;;;25.70;52.80;;;;;;5045135;28;20032;-83
2022/07/14 06:21:50;;;;;;;22.27;20.67;;;25.70;52.50;;;;;;5029922;28;20432;-83
2022/07/14 06:24:16;;;;;;;23.95;22.45;;;25.70;52.90;;;;;;5028640;28;20028;-82
2022/07/14 06:26:42;;;;;;;22.35;20.98;;;25.70;52.10;;;;;;5030981;28;20472;-83
2022/07/14 06:29:10;;;;;;;24.50;23.00;;;25.80;52.20;;;;;;5020208;28;20045;-83
2022/07/14 06:31:36;;;;;;;24.92;23.23;;;25.70;52.50;;;;;;5021318;28;20045;-82
2022/07/14 06:34:03;;;;;;;24.27;22.77;;;25.70;52.50;;;;;;5029732;28;20060;-83
2022/07/14 06:36:29;;;;;;;24.08;22.65;;;25.70;52.20;;;;;;5045172;28;20037;-82
2022/07/14 06:38:56;;;;;;;23.23;21.73;;;25.70;52.50;;;;;;5029382;28;20029;-83
2022/07/14 06:41:22;;;;;;;23.80;22.40;;;25.60;52.70;;;;;;5044927;28;20021;-83
2022/07/14 06:43:48;;;;;;;23.48;22.00;;;25.70;52.60;;;;;;5038084;28;20088;-82
2022/07/14 06:46:15;;;;;;;24.45;22.75;;;25.60;52.80;;;;;;5017939;28;20581;-83
2022/07/14 06:48:41;;;;;;;24.42;23.02;;;25.70;52.70;;;;;;5030782;28;20030;-83
2022/07/14 06:51:07;;;;;;;24.95;23.45;;;25.80;52.40;;;;;;5045069;28;20029;-83
2022/07/14 06:53:34;;;;;;;24.73;23.17;;;25.90;52.50;;;;;;5045486;28;20400;-82
2022/07/14 06:56:00;;;;;;;27.50;25.45;;;26.10;51.70;;;;;;5044826;28;20040;-83
2022/07/14 06:58:26;;;;;;;27.52;25.80;;;26.40;51.40;;;;;;5044491;28;20036;-83
2022/07/14 07:00:52;;;;;;;29.02;27.08;;;26.40;51.10;;;;;;5044322;28;20053;-83
2022/07/14 07:03:18;;;;;;;27.40;25.90;;;26.50;51.00;;;;;;5011815;28;20042;-83
2022/07/14 07:08:29;;;;;;;30.35;28.65;;;26.60;50.60;;;;;;5018180;28;20060;-83
2022/07/14 07:10:56;;;;;;;32.13;29.98;;;26.70;50.20;;;;;;5017077;28;20022;-83
2022/07/14 07:13:22;;;;;;;29.48;27.90;;;26.80;50.20;;;;;;5019301;28;20041;-83
2022/07/14 07:15:48;;;;;;;28.65;27.08;;;27.00;49.70;;;;;;5045973;28;20029;-83
2022/07/14 07:18:14;;;;;;;32.47;30.23;;;27.30;49.10;;;;;;4999097;28;20038;-82
2022/07/14 07:20:40;;;;;;;29.83;27.70;;;27.30;48.30;;;;;;5017085;28;20034;-83
2022/07/14 07:23:06;;;;;;;29.67;27.77;;;27.20;48.40;;;;;;5045437;28;20472;-83
2022/07/14 07:25:33;;;;;;;30.85;29.05;;;27.20;48.50;;;;;;5027162;28;20034;-83
2022/07/14 07:27:59;;;;;;;27.73;26.27;;;27.30;48.40;;;;;;5019501;28;20033;-83
2022/07/14 07:30:25;;;;;;;28.08;26.27;;;27.40;48.30;;;;;;5047267;28;20041;-83
2022/07/14 07:32:51;;;;;;;28.80;27.20;;;27.50;47.80;;;;;;5032196;28;20048;-83
2022/07/14 07:35:18;;;;;;;31.73;29.52;;;27.60;47.90;;;;;;5032258;28;20025;-83
2022/07/14 07:37:45;;;;;;;27.67;26.15;;;27.70;47.50;;;;;;5030784;28;20045;-83
2022/07/14 07:40:11;;;;;;;29.63;28.10;;;27.90;47.30;;;;;;5032183;28;20563;-83
2022/07/14 07:42:38;;;;;;;30.00;28.40;;;28.00;46.90;;;;;;5047437;28;20466;-84
2022/07/14 07:45:04;;;;;;;30.95;29.05;;;28.10;46.30;;;;;;5031894;28;20032;-83
2022/07/14 07:47:30;;;;;;;30.35;28.75;;;28.00;46.10;;;;;;5036154;28;20041;-84
2022/07/14 07:49:56;;;;;;;30.80;29.20;;;28.20;45.40;;;;;;5027221;28;20040;-84
2022/07/14 07:52:22;;;;;;;32.00;30.20;;;28.40;44.90;;;;;;5032027;28;20474;-84
2022/07/14 07:54:49;;;;;;;31.90;30.00;;;28.40;44.50;;;;;;5047800;28;20029;-83
2022/07/14 07:57:15;;;;;;;30.08;28.58;;;28.40;43.80;;;;;;5029951;28;20045;-84
2022/07/14 07:59:41;;;;;;;29.17;27.63;;;28.40;43.10;;;;;;5031592;28;20037;-83
2022/07/14 08:02:07;;;;;;;31.90;30.08;;;28.40;43.10;;;;;;5037704;28;20038;-84
2022/07/14 08:04:33;;;;;;;30.90;29.20;;;28.50;43.60;;;;;;5024858;28;20032;-84
2022/07/14 08:06:59;;;;;;;31.65;29.90;;;28.80;43.10;;;;;;5010721;28;20416;-84
2022/07/14 08:09:25;;;;;;;31.80;30.17;;;28.80;42.60;;;;;;5030572;28;20473;-83
2022/07/14 08:11:52;;;;;;;32.60;30.80;;;28.80;42.50;;;;;;5030814;28;20033;-84
2022/07/14 08:17:02;;;;;;;36.08;33.42;;;29.00;42.40;;;;;;5045155;28;20048;-84
2022/07/14 08:19:32;;;;;;;38.70;36.80;;;29.20;42.00;;;;;;5031686;28;20033;-84
2022/07/14 08:21:58;;;;;;;38.28;36.00;;;29.50;41.30;;;;;;5046630;28;20025;-84
2022/07/14 08:24:25;;;;;;;39.10;37.03;;;29.60;41.30;;;;;;5046836;28;20039;-84
2022/07/14 08:26:51;;;;;;;39.80;37.38;;;29.60;40.50;;;;;;5032567;28;20030;-84
2022/07/14 08:29:17;;;;;;;41.35;39.33;;;29.60;40.70;;;;;;5029972;28;20053;-84
2022/07/14 08:31:43;;;;;;;40.08;37.97;;;29.80;40.20;;;;;;5023847;28;20050;-84
2022/07/14 08:34:09;;;;;;;39.88;37.88;;;29.90;39.60;;;;;;5021145;28;20402;-84
2022/07/14 08:36:35;;;;;;;41.55;39.45;;;29.80;39.10;;;;;;5031566;28;20033;-84
2022/07/14 08:39:05;;;;;;;38.25;36.25;;;29.70;39.30;;;;;;5031540;28;20040;-84
2022/07/14 08:41:34;;;;;;;38.75;36.85;;;29.90;39.00;;;;;;5019630;28;20396;-84
2022/07/14 08:44:01;;;;;;;39.87;37.93;;;29.90;38.70;;;;;;5028013;28;20358;-84
2022/07/14 08:46:27;;;;;;;38.88;36.88;;;30.00;38.40;;;;;;5045869;28;20029;-84
2022/07/14 08:48:53;;;;;;;39.88;37.88;;;30.20;37.90;;;;;;5046596;28;20373;-84
2022/07/14 08:51:20;;;;;;;39.88;37.83;;;30.30;37.60;;;;;;5031140;28;20041;-84
2022/07/14 08:53:46;;;;;;;41.70;39.60;;;30.30;37.40;;;;;;5030243;28;20045;-84
2022/07/14 08:56:13;;;;;;;42.72;40.53;;;30.40;37.50;;;;;;5029797;28;20032;-84
2022/07/14 08:58:40;;;;;;;40.20;37.90;;;30.10;37.60;;;;;;5013037;28;20056;-84
2022/07/14 09:01:06;;;;;;;40.20;38.05;;;30.20;38.00;;;;;;5045751;28;20404;-84
2022/07/14 09:03:33;;;;;;;40.63;38.53;;;30.30;37.90;;;;;;5029539;28;20398;-84
2022/07/14 09:05:59;;;;;;;42.63;40.13;;;30.50;38.30;;;;;;5021496;28;20038;-84
2022/07/14 09:08:25;;;;;;;44.97;42.58;;;30.80;36.90;;;;;;5030143;28;20042;-85
2022/07/14 09:10:51;;;;;;;45.08;42.58;;;30.80;36.00;;;;;;5030616;28;20025;-84
2022/07/14 09:13:18;;;;;;;47.58;45.08;;;30.80;36.30;;;;;;5045692;28;20045;-85
2022/07/14 09:15:45;;;;;;;45.50;43.30;;;31.00;36.50;;;;;;5045517;28;20034;-84
2022/07/14 09:18:18;;;;;;;49.08;46.47;;;31.20;36.60;;;;;;5046015;28;20066;-84
2022/07/14 09:20:45;;;;;;;49.47;46.88;;;31.50;36.00;;;;;;5014919;28;20381;-84
2022/07/14 09:23:11;;;;;;;51.00;48.53;;;31.50;35.30;;;;;;5043531;28;20468;-85
2022/07/14 09:25:37;;;;;;;52.17;49.47;;;31.80;36.20;;;;;;5045680;28;20033;-84
2022/07/14 09:28:03;;;;;;;52.92;50.22;;;32.10;34.20;;;;;;5028844;28;20048;-84
2022/07/14 09:30:31;;;;;;;54.80;52.00;;;32.30;34.50;;;;;;5047791;28;20041;-84
2022/07/14 09:33:04;;;;;;;54.55;51.88;;;32.40;34.00;;;;;;5067125;28;20025;-85
2022/07/14 09:35:33;;;;;;;55.47;52.47;;;32.10;34.10;;;;;;5037253;28;20116;-85
2022/07/14 09:37:59;;;;;;;53.15;50.38;;;32.10;33.80;;;;;;5028088;28;20045;-84
2022/07/14 09:40:34;;;;;;;55.13;52.22;;;31.90;34.20;;;;;;5029211;28;20032;-85
2022/07/14 09:43:01;;;;;;;51.13;48.50;;;31.90;34.10;;;;;;5045537;28;20037;-84
2022/07/14 09:45:29;;;;;;;53.08;50.45;;;31.80;34.30;;;;;;5012103;28;20037;-85
2022/07/14 09:47:58;;;;;;;53.33;50.63;;;31.90;34.30;;;;;;5024999;28;20041;-85
2022/07/14 09:50:48;;;;;;;52.35;49.78;;;32.00;33.90;;;;;;5045915;28;20032;-82
2022/07/14 09:53:28;;;;;;;53.17;50.08;;;32.00;33.70;;;;;;5029489;28;20042;-84
2022/07/14 09:55:57;;;;;;;51.88;49.13;;;31.80;33.40;;;;;;5028841;28;20041;-84
2022/07/14 09:58:28;;;;;;;55.47;52.67;;;31.70;33.20;;;;;;5026924;28;20473;-84
2022/07/14 10:01:03;;;;;;;53.78;50.97;;;31.80;32.40;;;;;;5016347;28;20496;-84
2022/07/14 10:03:30;;;;;;;52.00;49.40;;;31.80;31.40;;;;;;5013444;28;20034;-85
2022/07/14 10:05:57;;;;;;;54.15;51.45;;;31.90;32.10;;;;;;5002394;28;20022;-84
2022/07/14 10:08:30;;;;;;;56.13;53.05;;;32.10;32.80;;;;;;5028390;28;20060;-84
2022/07/14 10:10:57;;;;;;;53.75;50.90;;;32.40;31.10;;;;;;5012023;28;20048;-84
2022/07/14 10:13:24;;;;;;;1999.90;999.90;;;32.40;30.00;;;;;;5028448;28;20036;-85
2022/07/14 10:15:54;;;;;;;541.10;288.90;;;32.40;30.30;;;;;;5044540;28;20034;-85
2022/07/14 10:18:21;;;;;;;50.60;48.10;;;32.50;30.40;;;;;;5011601;28;20381;-84
2022/07/14 10:20:52;;;;;;;1026.70;525.35;;;32.40;30.70;;;;;;5030508;28;20033;-84
2022/07/14 10:23:18;;;;;;;;;;;32.40;30.20;;;;;;5017910;28;20046;-85
2022/07/14 10:25:49;;;;;;;52.92;50.28;;;32.50;30.40;;;;;;5023031;28;20375;-84
2022/07/14 10:28:16;;;;;;;52.92;50.33;;;32.60;30.20;;;;;;5029523;28;20034;-84
2022/07/14 10:31:03;;;;;;;66.93;63.35;;;32.50;30.30;;;;;;5013261;28;20033;-85
2022/07/14 10:33:35;;;;;;;55.22;52.50;;;32.60;30.30;;;;;;5014311;28;20049;-85
2022/07/14 10:36:08;;;;;;;57.67;54.78;;;32.60;30.80;;;;;;5026205;28;20044;-85
2022/07/14 10:38:56;;;;;;;1999.90;999.90;;;32.60;29.70;;;;;;5016338;28;20037;-85
2022/07/14 10:42:01;;;;;;;1999.90;999.90;;;32.80;30.30;;;;;;5033866;28;20392;-85
2022/07/14 10:44:29;;;;;;;1999.90;999.90;;;33.20;29.50;;;;;;5030704;28;20033;-84
2022/07/14 10:47:11;;;;;;;1999.90;999.90;;;33.50;29.10;;;;;;5028951;28;20044;-85
2022/07/14 10:50:06;;;;;;;1999.90;999.90;;;33.50;28.60;;;;;;5008169;28;20041;-84
2022/07/14 10:52:56;;;;;;;51.58;49.05;;;33.60;29.10;;;;;;5021995;28;20042;-84
2022/07/14 10:55:23;;;;;;;1999.90;999.90;;;33.30;29.60;;;;;;5029405;28;20056;-85
2022/07/14 10:58:18;;;;;;;1999.90;999.90;;;33.30;29.70;;;;;;5031234;28;20037;-85
2022/07/14 11:00:44;;;;;;;56.15;53.25;;;33.20;29.60;;;;;;4960908;28;20129;-85
2022/07/14 11:03:39;;;;;;;540.90;288.77;;;33.20;30.20;;;;;;4991515;28;20057;-85
2022/07/14 11:06:12;;;;;;;52.10;49.50;;;33.10;30.00;;;;;;4974312;28;20046;-85
2022/07/14 11:08:42;;;;;;;57.95;54.90;;;33.00;30.80;;;;;;4992029;28;20138;-85
2022/07/14 11:11:18;;;;;;;53.13;50.42;;;32.80;31.10;;;;;;4975272;28;20057;-85
2022/07/14 11:13:59;;;;;;;59.22;56.28;;;32.80;31.20;;;;;;4975052;28;20045;-85
2022/07/14 11:16:44;;;;;;;67.13;63.78;;;33.10;31.50;;;;;;4990594;28;20509;-85
2022/07/14 11:19:24;;;;;;;55.72;52.30;;;33.10;31.90;;;;;;4990925;28;20042;-86
2022/07/14 11:22:09;;;;;;;55.20;52.30;;;33.20;31.90;;;;;;4958928;28;20106;-86
2022/07/14 11:24:35;;;;;;;55.88;53.13;;;33.00;31.60;;;;;;4991349;28;20038;-85
2022/07/14 11:27:35;;;;;;;52.42;49.88;;;33.30;31.80;;;;;;4975318;28;20026;-86
2022/07/14 11:30:19;;;;;;;51.03;48.47;;;33.30;31.30;;;;;;4978106;28;20034;-85
2022/07/14 11:32:45;;;;;;;56.42;53.42;;;33.30;31.50;;;;;;4990130;28;20054;-85
2022/07/14 11:38:20;;;;;;;1999.90;999.90;;;33.40;32.00;;;;;;4997675;28;20053;-85
2022/07/14 11:40:51;;;;;;;56.97;54.13;;;33.60;31.10;;;;;;5014629;28;20400;-85
2022/07/14 11:43:29;;;;;;;60.05;57.05;;;33.80;30.90;;;;;;5018975;28;20042;-85
2022/07/14 11:45:56;;;;;;;58.40;55.50;;;33.70;32.10;;;;;;5012238;28;20030;-85
2022/07/14 11:48:23;;;;;;;55.55;52.83;;;33.90;31.80;;;;;;5027438;28;20038;-86
2022/07/14 11:50:49;;;;;;;57.13;54.13;;;33.60;32.40;;;;;;5012166;28;20025;-85
2022/07/14 11:53:15;;;;;;;61.53;58.22;;;33.60;32.50;;;;;;5010975;28;20042;-85
2022/07/14 11:55:41;;;;;;;57.55;54.47;;;33.60;32.20;;;;;;5022320;28;20495;-85
2022/07/14 11:58:08;;;;;;;56.28;53.30;;;33.60;32.00;;;;;;5016475;28;20038;-85
2022/07/14 12:00:35;;;;;;;55.08;52.22;;;33.60;31.70;;;;;;4995256;28;20041;-85
2022/07/14 12:03:03;;;;;;;1999.90;999.90;;;33.80;31.70;;;;;;5027202;28;20049;-85
2022/07/14 12:05:31;;;;;;;55.03;52.22;;;34.00;31.00;;;;;;5003828;28;20018;-85
2022/07/14 12:08:00;;;;;;;58.90;55.85;;;33.90;31.50;;;;;;5012015;28;20030;-85
2022/07/14 12:10:40;;;;;;;57.03;54.05;;;33.80;31.50;;;;;;5027299;28;20029;-85
2022/07/14 12:13:06;;;;;;;1999.90;999.90;;;33.70;31.20;;;;;;5027270;28;20396;-85
2022/07/14 12:15:33;;;;;;;1999.90;999.90;;;33.90;31.00;;;;;;5011769;28;20373;-85
2022/07/14 12:18:01;;;;;;;54.45;51.78;;;34.00;30.60;;;;;;5027546;28;20029;-85
2022/07/14 12:20:44;;;;;;;1999.90;999.90;;;33.80;30.20;;;;;;4990133;28;20052;-85
2022/07/14 12:23:11;;;;;;;53.72;51.13;;;33.80;30.00;;;;;;5025776;28;20033;-85
2022/07/14 12:25:44;;;;;;;1999.90;999.90;;;33.90;29.90;;;;;;4993708;28;20038;-85
2022/07/14 12:28:13;;;;;;;1999.90;999.90;;;33.90;29.80;;;;;;4992203;28;20042;-85
2022/07/14 12:30:47;;;;;;;52.17;49.47;;;33.90;29.80;;;;;;5010599;28;20045;-85
2022/07/14 12:33:35;;;;;;;1999.90;999.90;;;33.70;29.70;;;;;;5011058;28;20038;-85
2022/07/14 12:36:01;;;;;;;1999.90;999.90;;;33.90;29.00;;;;;;5009747;28;20041;-85
2022/07/14 12:38:28;;;;;;;1999.90;999.90;;;34.10;28.70;;;;;;4999178;28;20030;-85
2022/07/14 12:40:57;;;;;;;1999.90;999.90;;;33.90;28.50;;;;;;5006428;28;20030;-84
2022/07/14 12:43:24;;;;;;;1999.90;999.90;;;33.80;28.50;;;;;;5010394;28;20399;-85